createdAt,value
2023-11-30T00:00:23.979Z,28.80
2023-11-30T00:01:23.979Z,31.50
2023-11-30T00:02:23.911Z,32.90
2023-11-30T00:03:23.948Z,35.00
2023-11-30T00:04:23.827Z,34.70
2023-11-30T00:05:23.994Z,33.10
2023-11-30T00:06:23.829Z,31.70
2023-11-30T00:07:23.742Z,31.40
2023-11-30T00:08:23.717Z,32.40
2023-11-30T00:09:23.730Z,35.40
2023-11-30T00:10:23.673Z,34.70
2023-11-30T00:11:23.622Z,36.20
2023-11-30T00:12:23.676Z,35.80
2023-11-30T00:13:23.568Z,35.80
2023-11-30T00:14:23.544Z,36.30
2023-11-30T00:15:23.536Z,39.20
2023-11-30T00:16:23.553Z,38.80
2023-11-30T00:17:23.458Z,38.20
2023-11-30T00:18:23.489Z,40.80
2023-11-30T00:19:23.420Z,41.60
2023-11-30T00:20:23.391Z,40.90
2023-11-30T00:21:23.371Z,38.20
2023-11-30T00:22:23.305Z,38.40
2023-11-30T00:23:23.273Z,34.90
2023-11-30T00:24:23.339Z,37.60
2023-11-30T00:25:23.226Z,38.60
2023-11-30T00:26:23.204Z,39.40
2023-11-30T00:27:23.200Z,41.80
2023-11-30T00:28:23.152Z,42.60
2023-11-30T00:29:23.112Z,42.40
2023-11-30T00:30:23.115Z,40.20
2023-11-30T00:31:23.098Z,44.90
2023-11-30T00:32:23.032Z,42.50
2023-11-30T00:33:23.074Z,41.30
2023-11-30T00:34:22.956Z,42.00
2023-11-30T00:35:22.946Z,41.50
2023-11-30T00:36:22.968Z,35.80
2023-11-30T00:37:22.877Z,33.00
2023-11-30T00:38:22.839Z,43.60
2023-11-30T00:39:22.847Z,35.90
2023-11-30T00:40:22.794Z,35.40
2023-11-30T00:41:22.779Z,31.70
2023-11-30T00:42:23.003Z,38.30
2023-11-30T00:43:22.691Z,43.70
2023-11-30T00:44:22.800Z,45.20
2023-11-30T00:45:22.675Z,34.60
2023-11-30T00:46:22.629Z,42.70
2023-11-30T00:47:22.572Z,32.70
2023-11-30T00:48:22.644Z,27.00
2023-11-30T00:49:22.522Z,32.40
2023-11-30T00:50:22.517Z,32.00
2023-11-30T00:51:22.544Z,29.60
2023-11-30T00:52:22.443Z,33.60
2023-11-30T00:53:22.406Z,38.30
2023-11-30T00:54:22.435Z,36.50
2023-11-30T00:55:22.340Z,30.60
2023-11-30T00:56:22.317Z,31.90
2023-11-30T00:57:22.303Z,34.40
2023-11-30T00:58:22.268Z,32.40
2023-11-30T00:59:22.378Z,31.00
2023-11-30T01:00:22.268Z,31.00
2023-11-30T01:01:22.267Z,29.10
2023-11-30T01:02:22.187Z,26.60
2023-11-30T01:03:22.267Z,28.10
2023-11-30T01:04:22.265Z,30.40
2023-11-30T01:05:22.052Z,29.40
2023-11-30T01:06:22.045Z,25.00
2023-11-30T01:07:22.009Z,27.80
2023-11-30T01:08:21.976Z,25.70
2023-11-30T01:09:21.986Z,22.30
2023-11-30T01:10:21.899Z,22.80
2023-11-30T01:11:21.882Z,24.20
2023-11-30T01:12:21.924Z,27.10
2023-11-30T01:13:21.814Z,27.00
2023-11-30T01:14:21.785Z,22.80
2023-11-30T01:15:21.795Z,26.30
2023-11-30T01:16:21.762Z,30.30
2023-11-30T01:17:21.743Z,39.60
2023-11-30T01:18:21.725Z,38.60
2023-11-30T01:19:21.635Z,36.20
2023-11-30T01:20:21.607Z,37.80
2023-11-30T01:21:21.627Z,36.20
2023-11-30T01:22:21.553Z,46.00
2023-11-30T01:23:21.545Z,30.50
2023-11-30T01:24:21.516Z,24.30
2023-11-30T01:25:21.501Z,35.00
2023-11-30T01:26:21.446Z,36.50
2023-11-30T01:27:21.477Z,24.70
2023-11-30T01:28:21.381Z,30.00
2023-11-30T01:29:21.346Z,28.90
2023-11-30T01:30:21.364Z,31.40
2023-11-30T01:31:21.380Z,32.70
2023-11-30T01:32:21.256Z,40.70
2023-11-30T01:33:21.371Z,28.60
2023-11-30T01:34:21.196Z,24.30
2023-11-30T01:35:21.183Z,35.40
2023-11-30T01:36:21.199Z,27.60
2023-11-30T01:37:21.120Z,27.40
2023-11-30T01:38:21.080Z,24.10
2023-11-30T01:39:21.103Z,24.10
2023-11-30T01:40:21.028Z,34.10
2023-11-30T01:41:20.999Z,42.80
2023-11-30T01:42:20.990Z,31.60
2023-11-30T01:43:20.942Z,41.00
2023-11-30T01:44:20.917Z,38.90
2023-11-30T01:45:20.931Z,28.30
2023-11-30T01:46:20.861Z,31.10
2023-11-30T01:47:20.820Z,29.90
2023-11-30T01:48:20.829Z,24.60
2023-11-30T01:49:20.766Z,25.50
2023-11-30T01:50:20.739Z,29.90
2023-11-30T01:51:20.733Z,32.60
2023-11-30T01:52:20.669Z,41.00
2023-11-30T01:53:20.650Z,45.10
2023-11-30T01:54:20.636Z,40.70
2023-11-30T01:55:20.601Z,42.50
2023-11-30T01:56:20.553Z,32.00
2023-11-30T01:57:20.553Z,34.60
2023-11-30T01:58:20.495Z,40.20
2023-11-30T01:59:20.464Z,37.30
2023-11-30T02:00:20.537Z,29.40
2023-11-30T02:01:20.416Z,34.40
2023-11-30T02:02:20.419Z,28.00
2023-11-30T02:03:22.656Z,28.40
2023-11-30T02:04:20.381Z,29.40
2023-11-30T02:05:20.291Z,31.00
2023-11-30T02:06:20.421Z,26.40
2023-11-30T02:07:20.226Z,28.20
2023-11-30T02:08:20.199Z,30.20
2023-11-30T02:09:20.209Z,26.90
2023-11-30T02:10:20.138Z,27.80
2023-11-30T02:11:20.150Z,24.60
2023-11-30T02:12:20.101Z,29.50
2023-11-30T02:13:20.052Z,33.20
2023-11-30T02:14:20.024Z,30.20
2023-11-30T02:15:20.010Z,27.60
2023-11-30T02:16:20.020Z,28.70
2023-11-30T02:17:19.937Z,26.90
2023-11-30T02:18:19.983Z,25.80
2023-11-30T02:19:19.881Z,24.90
2023-11-30T02:20:19.848Z,27.00
2023-11-30T02:21:19.863Z,28.70
2023-11-30T02:22:19.790Z,25.00
2023-11-30T02:23:19.782Z,32.10
2023-11-30T02:24:19.838Z,24.80
2023-11-30T02:25:19.706Z,31.30
2023-11-30T02:26:19.672Z,27.20
2023-11-30T02:27:19.686Z,30.40
2023-11-30T02:28:19.611Z,27.00
2023-11-30T02:29:19.588Z,26.90
2023-11-30T02:30:19.623Z,26.80
2023-11-30T02:31:19.538Z,30.00
2023-11-30T02:32:19.494Z,30.20
2023-11-30T02:33:19.860Z,28.10
2023-11-30T02:34:19.457Z,27.40
2023-11-30T02:35:19.418Z,26.40
2023-11-30T02:36:19.586Z,25.10
2023-11-30T02:37:19.352Z,27.30
2023-11-30T02:38:19.323Z,28.10
2023-11-30T02:39:19.315Z,32.80
2023-11-30T02:40:19.264Z,29.40
2023-11-30T02:41:19.235Z,27.80
2023-11-30T02:42:19.241Z,28.90
2023-11-30T02:43:19.217Z,26.80
2023-11-30T02:44:19.142Z,28.90
2023-11-30T02:45:19.163Z,30.40
2023-11-30T02:46:19.127Z,28.20
2023-11-30T02:47:19.073Z,30.30
2023-11-30T02:48:19.130Z,30.50
2023-11-30T02:49:18.999Z,32.60
2023-11-30T02:50:18.968Z,31.70
2023-11-30T02:51:19.027Z,31.10
2023-11-30T02:52:18.930Z,29.60
2023-11-30T02:53:18.902Z,31.90
2023-11-30T02:54:18.993Z,31.10
2023-11-30T02:55:18.837Z,29.40
2023-11-30T02:56:18.793Z,31.10
2023-11-30T02:57:18.771Z,31.40
2023-11-30T02:58:18.742Z,35.50
2023-11-30T02:59:18.727Z,34.80
2023-11-30T03:00:18.713Z,34.50
2023-11-30T03:01:18.690Z,32.30
2023-11-30T03:02:18.706Z,35.90
2023-11-30T03:03:18.676Z,31.70
2023-11-30T03:04:18.594Z,32.40
2023-11-30T03:05:18.544Z,36.20
2023-11-30T03:06:18.538Z,32.90
2023-11-30T03:07:18.472Z,34.40
2023-11-30T03:08:18.436Z,39.20
2023-11-30T03:09:18.487Z,35.10
2023-11-30T03:10:19.816Z,37.20
2023-11-30T03:11:18.358Z,42.80
2023-11-30T03:12:18.370Z,36.80
2023-11-30T03:13:18.318Z,37.70
2023-11-30T03:14:18.264Z,38.10
2023-11-30T03:15:18.298Z,36.40
2023-11-30T03:16:18.250Z,50.20
2023-11-30T03:17:18.188Z,41.30
2023-11-30T03:18:18.194Z,45.30
2023-11-30T03:19:18.246Z,39.90
2023-11-30T03:20:18.085Z,36.40
2023-11-30T03:21:18.139Z,48.00
2023-11-30T03:22:18.032Z,34.40
2023-11-30T03:23:18.005Z,34.90
2023-11-30T03:24:18.046Z,41.50
2023-11-30T03:25:17.947Z,35.50
2023-11-30T03:26:17.916Z,40.30
2023-11-30T03:27:17.924Z,36.80
2023-11-30T03:28:17.856Z,36.50
2023-11-30T03:29:17.840Z,39.60
2023-11-30T03:30:17.842Z,37.90
2023-11-30T03:31:17.812Z,33.80
2023-11-30T03:32:17.738Z,36.40
2023-11-30T03:33:17.737Z,35.70
2023-11-30T03:34:17.684Z,41.20
2023-11-30T03:35:17.660Z,37.10
2023-11-30T03:36:17.692Z,36.50
2023-11-30T03:37:17.650Z,41.50
2023-11-30T03:38:17.570Z,39.40
2023-11-30T03:39:17.555Z,42.40
2023-11-30T03:40:17.515Z,43.10
2023-11-30T03:41:17.484Z,41.20
2023-11-30T03:42:17.493Z,35.60
2023-11-30T03:43:17.420Z,41.70
2023-11-30T03:44:17.390Z,46.30
2023-11-30T03:45:17.453Z,39.10
2023-11-30T03:46:17.392Z,43.60
2023-11-30T03:47:17.347Z,44.80
2023-11-30T03:48:17.338Z,50.20
2023-11-30T03:49:17.243Z,45.30
2023-11-30T03:50:17.234Z,40.80
2023-11-30T03:51:17.223Z,40.10
2023-11-30T03:52:17.153Z,40.00
2023-11-30T03:53:17.124Z,41.30
2023-11-30T03:54:17.144Z,44.60
2023-11-30T03:55:17.069Z,44.20
2023-11-30T03:56:17.041Z,47.40
2023-11-30T03:57:17.038Z,40.30
2023-11-30T03:58:16.984Z,44.70
2023-11-30T03:59:16.963Z,48.30
2023-11-30T04:00:16.937Z,43.70
2023-11-30T04:01:16.893Z,50.10
2023-11-30T04:02:17.007Z,46.90
2023-11-30T04:03:16.884Z,47.60
2023-11-30T04:04:16.906Z,44.00
2023-11-30T04:05:16.803Z,46.30
2023-11-30T04:06:16.759Z,46.00
2023-11-30T04:07:16.726Z,44.70
2023-11-30T04:08:16.684Z,51.70
2023-11-30T04:09:19.086Z,46.60
2023-11-30T04:10:16.632Z,49.50
2023-11-30T04:11:16.601Z,43.60
2023-11-30T04:12:16.614Z,46.30
2023-11-30T04:13:16.542Z,52.70
2023-11-30T04:14:16.516Z,60.30
2023-11-30T04:15:16.527Z,50.30
2023-11-30T04:16:16.557Z,48.40
2023-11-30T04:17:16.425Z,47.90
2023-11-30T04:18:16.504Z,49.20
2023-11-30T04:19:16.396Z,47.80
2023-11-30T04:20:16.340Z,50.30
2023-11-30T04:21:16.343Z,56.30
2023-11-30T04:22:16.278Z,45.80
2023-11-30T04:23:16.245Z,52.70
2023-11-30T04:24:16.265Z,47.90
2023-11-30T04:25:16.198Z,51.80
2023-11-30T04:26:16.157Z,59.80
2023-11-30T04:27:16.166Z,48.20
2023-11-30T04:28:16.102Z,55.10
2023-11-30T04:29:16.082Z,54.60
2023-11-30T04:30:16.066Z,52.00
2023-11-30T04:31:16.037Z,52.50
2023-11-30T04:32:15.984Z,49.20
2023-11-30T04:33:15.983Z,47.50
2023-11-30T04:34:15.923Z,50.70
2023-11-30T04:35:15.915Z,48.00
2023-11-30T04:36:15.892Z,48.20
2023-11-30T04:37:15.840Z,50.40
2023-11-30T04:38:15.808Z,52.70
2023-11-30T04:39:15.828Z,48.50
2023-11-30T04:40:15.762Z,49.30
2023-11-30T04:41:15.726Z,50.90
2023-11-30T04:42:15.705Z,53.70
2023-11-30T04:43:15.669Z,56.50
2023-11-30T04:44:15.632Z,54.80
2023-11-30T04:45:15.665Z,51.30
2023-11-30T04:46:15.655Z,53.20
2023-11-30T04:47:15.549Z,62.40
2023-11-30T04:48:15.582Z,60.40
2023-11-30T04:49:15.514Z,70.90
2023-11-30T04:50:15.461Z,59.70
2023-11-30T04:51:15.492Z,54.30
2023-11-30T04:52:15.399Z,67.20
2023-11-30T04:53:15.379Z,60.00
2023-11-30T04:54:15.349Z,60.30
2023-11-30T04:55:15.310Z,70.40
2023-11-30T04:56:15.276Z,64.30
2023-11-30T04:57:15.297Z,60.80
2023-11-30T04:58:15.226Z,63.40
2023-11-30T04:59:15.192Z,57.20
2023-11-30T05:00:15.189Z,65.50
2023-11-30T05:01:15.134Z,61.00
2023-11-30T05:02:15.265Z,60.30
2023-11-30T05:03:15.252Z,59.30
2023-11-30T05:04:15.225Z,57.50
2023-11-30T05:05:15.037Z,56.50
2023-11-30T05:06:15.044Z,55.20
2023-11-30T05:07:14.997Z,53.30
2023-11-30T05:08:14.970Z,58.30
2023-11-30T05:09:14.943Z,60.20
2023-11-30T05:10:14.875Z,54.30
2023-11-30T05:11:14.852Z,57.30
2023-11-30T05:12:14.844Z,59.30
2023-11-30T05:13:14.793Z,54.50
2023-11-30T05:14:14.764Z,55.50
2023-11-30T05:15:14.813Z,56.10
2023-11-30T05:16:14.700Z,57.90
2023-11-30T05:17:14.669Z,51.10
2023-11-30T05:18:14.718Z,55.20
2023-11-30T05:19:14.615Z,59.40
2023-11-30T05:20:14.594Z,58.00
2023-11-30T05:21:14.575Z,53.90
2023-11-30T05:22:14.548Z,61.50
2023-11-30T05:23:14.511Z,60.80
2023-11-30T05:24:14.494Z,58.50
2023-11-30T05:25:14.449Z,62.30
2023-11-30T05:26:14.408Z,56.90
2023-11-30T05:27:14.409Z,55.30
2023-11-30T05:28:14.359Z,56.60
2023-11-30T05:29:14.321Z,57.10
2023-11-30T05:30:14.368Z,55.00
2023-11-30T05:31:14.279Z,55.20
2023-11-30T05:32:14.246Z,56.20
2023-11-30T05:33:14.258Z,55.30
2023-11-30T05:34:14.180Z,54.00
2023-11-30T05:35:14.152Z,58.00
2023-11-30T05:36:14.144Z,54.90
2023-11-30T05:37:14.092Z,54.50
2023-11-30T05:38:14.061Z,53.10
2023-11-30T05:39:14.102Z,52.40
2023-11-30T05:40:14.005Z,50.40
2023-11-30T05:41:13.975Z,56.70
2023-11-30T05:42:13.980Z,55.30
2023-11-30T05:43:13.908Z,49.00
2023-11-30T05:44:13.899Z,52.60
2023-11-30T05:45:13.870Z,51.90
2023-11-30T05:46:13.838Z,52.30
2023-11-30T05:47:13.809Z,53.70
2023-11-30T05:48:13.867Z,52.00
2023-11-30T05:49:13.804Z,48.70
2023-11-30T05:50:13.806Z,52.80
2023-11-30T05:51:13.734Z,54.60
2023-11-30T05:52:13.667Z,55.50
2023-11-30T05:53:13.651Z,48.30
2023-11-30T05:54:13.647Z,50.20
2023-11-30T05:55:13.581Z,55.00
2023-11-30T05:56:13.544Z,51.20
2023-11-30T05:57:13.507Z,52.30
2023-11-30T05:58:13.473Z,54.20
2023-11-30T05:59:13.442Z,51.50
2023-11-30T06:00:13.454Z,51.20
2023-11-30T06:01:13.386Z,49.00
2023-11-30T06:02:13.407Z,54.10
2023-11-30T06:03:13.398Z,56.20
2023-11-30T06:04:13.405Z,51.40
2023-11-30T06:05:13.466Z,50.60
2023-11-30T06:06:13.280Z,51.70
2023-11-30T06:07:13.225Z,57.00
2023-11-30T06:08:13.199Z,51.80
2023-11-30T06:09:13.161Z,51.00
2023-11-30T06:10:13.133Z,51.80
2023-11-30T06:11:13.122Z,52.60
2023-11-30T06:12:13.090Z,49.90
2023-11-30T06:13:13.039Z,59.10
2023-11-30T06:14:13.013Z,60.30
2023-11-30T06:15:13.016Z,56.80
2023-11-30T06:16:12.979Z,59.20
2023-11-30T06:17:12.931Z,66.90
2023-11-30T06:18:12.899Z,67.30
2023-11-30T06:19:12.879Z,68.40
2023-11-30T06:20:12.841Z,63.70
2023-11-30T06:21:12.858Z,61.40
2023-11-30T06:22:12.783Z,56.80
2023-11-30T06:23:12.737Z,67.20
2023-11-30T06:24:12.804Z,52.80
2023-11-30T06:25:12.694Z,57.30
2023-11-30T06:26:12.666Z,58.20
2023-11-30T06:27:12.667Z,57.00
2023-11-30T06:28:12.620Z,59.60
2023-11-30T06:29:12.567Z,60.90
2023-11-30T06:30:12.582Z,58.70
2023-11-30T06:31:12.533Z,56.00
2023-11-30T06:32:12.494Z,49.90
2023-11-30T06:33:12.527Z,58.60
2023-11-30T06:34:12.424Z,53.20
2023-11-30T06:35:12.389Z,64.90
2023-11-30T06:36:12.405Z,55.20
2023-11-30T06:37:12.338Z,58.80
2023-11-30T06:38:12.339Z,56.10
2023-11-30T06:39:12.270Z,52.40
2023-11-30T06:40:12.263Z,57.50
2023-11-30T06:41:12.215Z,58.20
2023-11-30T06:42:12.208Z,66.70
2023-11-30T06:43:12.184Z,62.10
2023-11-30T06:44:12.131Z,60.60
2023-11-30T06:45:12.152Z,71.80
2023-11-30T06:46:12.073Z,60.80
2023-11-30T06:47:12.091Z,61.00
2023-11-30T06:48:12.227Z,65.70
2023-11-30T06:49:11.986Z,68.40
2023-11-30T06:50:11.958Z,66.00
2023-11-30T06:51:11.941Z,59.10
2023-11-30T06:52:11.902Z,71.10
2023-11-30T06:53:11.868Z,66.10
2023-11-30T06:54:11.896Z,66.50
2023-11-30T06:55:11.809Z,62.10
2023-11-30T06:56:11.776Z,79.10
2023-11-30T06:57:11.900Z,71.10
2023-11-30T06:58:11.716Z,68.70
2023-11-30T06:59:11.710Z,66.50
2023-11-30T07:00:11.716Z,72.50
2023-11-30T07:01:11.638Z,67.80
2023-11-30T07:02:11.641Z,72.40
2023-11-30T07:03:11.666Z,67.50
2023-11-30T07:04:11.660Z,64.70
2023-11-30T07:05:11.583Z,71.00
2023-11-30T07:06:11.548Z,61.30
2023-11-30T07:07:20.132Z,75.40
2023-11-30T07:08:11.426Z,72.90
2023-11-30T07:09:11.400Z,69.20
2023-11-30T07:10:11.365Z,68.70
2023-11-30T07:11:11.337Z,62.10
2023-11-30T07:12:12.879Z,72.30
2023-11-30T07:13:11.277Z,69.90
2023-11-30T07:14:11.250Z,67.10
2023-11-30T07:15:11.294Z,70.50
2023-11-30T07:16:11.236Z,68.90
2023-11-30T07:17:11.158Z,77.90
2023-11-30T07:18:11.210Z,66.90
2023-11-30T07:19:11.096Z,67.50
2023-11-30T07:20:11.079Z,75.60
2023-11-30T07:21:11.098Z,66.30
2023-11-30T07:22:11.011Z,71.70
2023-11-30T07:23:10.982Z,63.70
2023-11-30T07:24:13.234Z,68.10
2023-11-30T07:25:10.931Z,63.70
2023-11-30T07:26:10.906Z,72.50
2023-11-30T07:27:10.903Z,70.00
2023-11-30T07:28:10.836Z,71.70
2023-11-30T07:29:10.813Z,60.20
2023-11-30T07:30:10.877Z,64.10
2023-11-30T07:31:10.821Z,67.60
2023-11-30T07:32:10.729Z,64.60
2023-11-30T07:33:10.834Z,63.00
2023-11-30T07:34:10.673Z,64.40
2023-11-30T07:35:10.647Z,72.30
2023-11-30T07:36:12.645Z,71.10
2023-11-30T07:37:10.575Z,70.10
2023-11-30T07:38:10.551Z,65.20
2023-11-30T07:39:10.554Z,69.30
2023-11-30T07:40:10.500Z,58.70
2023-11-30T07:41:10.474Z,59.20
2023-11-30T07:42:10.464Z,70.70
2023-11-30T07:43:10.505Z,68.00
2023-11-30T07:44:10.377Z,63.10
2023-11-30T07:45:10.556Z,64.70
2023-11-30T07:46:10.357Z,59.70
2023-11-30T07:47:10.306Z,65.30
2023-11-30T07:48:10.373Z,61.60
2023-11-30T07:49:10.229Z,60.80
2023-11-30T07:50:10.199Z,58.80
2023-11-30T07:51:10.200Z,58.30
2023-11-30T07:52:10.153Z,65.80
2023-11-30T07:53:10.132Z,66.00
2023-11-30T07:54:10.141Z,59.80
2023-11-30T07:55:10.046Z,64.30
2023-11-30T07:56:10.017Z,60.90
2023-11-30T07:57:10.002Z,66.10
2023-11-30T07:58:09.958Z,63.80
2023-11-30T07:59:09.934Z,64.80
2023-11-30T08:00:09.955Z,65.50
2023-11-30T08:01:09.872Z,62.80
2023-11-30T08:02:09.851Z,60.90
2023-11-30T08:03:09.867Z,61.30
2023-11-30T08:04:09.888Z,60.00
2023-11-30T08:05:09.757Z,59.00
2023-11-30T08:06:09.731Z,61.50
2023-11-30T08:07:09.708Z,60.30
2023-11-30T08:08:09.673Z,65.80
2023-11-30T08:09:09.745Z,64.90
2023-11-30T08:10:09.624Z,60.50
2023-11-30T08:11:09.608Z,55.20
2023-11-30T08:12:09.577Z,60.60
2023-11-30T08:13:09.520Z,54.30
2023-11-30T08:14:09.498Z,55.20
2023-11-30T08:15:09.496Z,57.70
2023-11-30T08:16:09.448Z,57.50
2023-11-30T08:17:09.412Z,54.00
2023-11-30T08:18:09.466Z,55.20
2023-11-30T08:19:09.397Z,56.10
2023-11-30T08:20:09.317Z,52.00
2023-11-30T08:21:09.305Z,51.40
2023-11-30T08:22:09.257Z,56.70
2023-11-30T08:23:09.224Z,49.70
2023-11-30T08:24:09.220Z,52.60
2023-11-30T08:25:09.175Z,55.80
2023-11-30T08:26:09.146Z,59.90
2023-11-30T08:27:09.133Z,56.20
2023-11-30T08:28:09.078Z,55.70
2023-11-30T08:29:09.055Z,53.20
2023-11-30T08:30:09.088Z,53.60
2023-11-30T08:31:08.999Z,54.50
2023-11-30T08:32:08.974Z,50.40
2023-11-30T08:33:09.048Z,48.00
2023-11-30T08:34:08.907Z,53.70
2023-11-30T08:35:08.910Z,57.00
2023-11-30T08:36:08.889Z,55.20
2023-11-30T08:37:08.824Z,55.00
2023-11-30T08:38:08.791Z,54.70
2023-11-30T08:39:08.805Z,55.70
2023-11-30T08:40:08.789Z,49.80
2023-11-30T08:41:08.699Z,54.10
2023-11-30T08:42:08.718Z,53.20
2023-11-30T08:43:08.642Z,49.40
2023-11-30T08:44:08.614Z,47.50
2023-11-30T08:45:08.612Z,48.20
2023-11-30T08:46:08.658Z,49.90
2023-11-30T08:47:08.539Z,54.50
2023-11-30T08:48:08.573Z,55.10
2023-11-30T08:49:08.469Z,52.50
2023-11-30T08:50:08.437Z,54.30
2023-11-30T08:51:08.491Z,52.50
2023-11-30T08:52:08.376Z,54.20
2023-11-30T08:53:08.353Z,54.60
2023-11-30T08:54:08.354Z,48.50
2023-11-30T08:55:08.313Z,46.10
2023-11-30T08:56:08.268Z,47.20
2023-11-30T08:57:08.240Z,50.10
2023-11-30T08:58:08.205Z,48.10
2023-11-30T08:59:08.208Z,53.30
2023-11-30T09:00:08.175Z,53.30
2023-11-30T09:01:08.113Z,62.10
2023-11-30T09:02:08.136Z,57.80
2023-11-30T09:03:08.098Z,53.90
2023-11-30T09:04:08.075Z,52.20
2023-11-30T09:05:07.999Z,53.10
2023-11-30T09:06:07.990Z,56.20
2023-11-30T09:07:07.965Z,57.60
2023-11-30T09:08:07.911Z,55.50
2023-11-30T09:09:07.934Z,51.90
2023-11-30T09:10:07.873Z,56.40
2023-11-30T09:11:07.825Z,54.30
2023-11-30T09:12:07.828Z,50.10
2023-11-30T09:13:07.773Z,58.70
2023-11-30T09:14:07.743Z,59.70
2023-11-30T09:15:07.755Z,57.40
2023-11-30T09:16:07.712Z,58.10
2023-11-30T09:17:07.659Z,65.20
2023-11-30T09:18:07.702Z,54.30
2023-11-30T09:19:07.600Z,54.30
2023-11-30T09:20:07.562Z,55.70
2023-11-30T09:21:07.582Z,48.20
2023-11-30T09:22:07.509Z,56.30
2023-11-30T09:23:07.489Z,56.80
2023-11-30T09:24:07.495Z,47.00
2023-11-30T09:25:07.417Z,52.50
2023-11-30T09:26:07.393Z,53.00
2023-11-30T09:27:07.395Z,53.90
2023-11-30T09:28:07.333Z,55.30
2023-11-30T09:29:07.450Z,54.00
2023-11-30T09:30:07.285Z,49.90
2023-11-30T09:31:07.397Z,49.60
2023-11-30T09:32:07.231Z,55.10
2023-11-30T09:33:07.241Z,56.20
2023-11-30T09:34:07.157Z,53.80
2023-11-30T09:35:07.182Z,53.40
2023-11-30T09:36:07.159Z,48.20
2023-11-30T09:37:07.074Z,51.70
2023-11-30T09:38:07.040Z,51.00
2023-11-30T09:39:07.035Z,53.10
2023-11-30T09:40:06.972Z,47.20
2023-11-30T09:41:07.012Z,51.10
2023-11-30T09:42:06.934Z,52.70
2023-11-30T09:43:06.893Z,52.60
2023-11-30T09:44:06.864Z,50.20
2023-11-30T09:45:06.862Z,47.50
2023-11-30T09:46:06.848Z,46.70
2023-11-30T09:47:06.779Z,44.70
2023-11-30T09:48:06.824Z,46.90
2023-11-30T09:49:08.507Z,50.90
2023-11-30T09:50:06.684Z,48.00
2023-11-30T09:51:06.679Z,44.60
2023-11-30T09:52:06.663Z,48.90
2023-11-30T09:53:06.598Z,54.40
2023-11-30T09:54:06.598Z,50.20
2023-11-30T09:55:06.582Z,47.70
2023-11-30T09:56:06.510Z,49.30
2023-11-30T09:57:06.528Z,48.20
2023-11-30T09:58:06.452Z,48.30
2023-11-30T09:59:06.424Z,49.50
2023-11-30T10:00:06.430Z,49.70
2023-11-30T10:01:06.399Z,47.40
2023-11-30T10:02:07.703Z,53.80
2023-11-30T10:03:06.437Z,50.10
2023-11-30T10:04:06.348Z,53.70
2023-11-30T10:05:06.246Z,55.30
2023-11-30T10:06:06.242Z,51.80
2023-11-30T10:07:06.192Z,49.30
2023-11-30T10:08:06.156Z,48.40
2023-11-30T10:09:06.153Z,44.90
2023-11-30T10:10:06.100Z,50.10
2023-11-30T10:11:06.110Z,46.40
2023-11-30T10:12:06.108Z,45.50
2023-11-30T10:13:06.019Z,46.00
2023-11-30T10:14:06.001Z,48.20
2023-11-30T10:15:06.077Z,48.70
2023-11-30T10:16:06.006Z,45.20
2023-11-30T10:17:06.015Z,46.70
2023-11-30T10:18:06.079Z,44.70
2023-11-30T10:19:07.971Z,49.80
2023-11-30T10:20:05.819Z,52.10
2023-11-30T10:21:05.786Z,48.80
2023-11-30T10:22:05.751Z,51.20
2023-11-30T10:23:05.729Z,48.70
2023-11-30T10:24:05.725Z,56.30
2023-11-30T10:25:05.671Z,59.40
2023-11-30T10:26:05.629Z,62.40
2023-11-30T10:27:05.676Z,59.50
2023-11-30T10:28:05.575Z,60.10
2023-11-30T10:29:05.561Z,59.10
2023-11-30T10:30:05.602Z,55.80
2023-11-30T10:31:05.507Z,51.20
2023-11-30T10:32:05.458Z,53.70
2023-11-30T10:33:05.609Z,50.00
2023-11-30T10:34:05.532Z,52.80
2023-11-30T10:35:05.422Z,56.50
2023-11-30T10:36:05.380Z,54.90
2023-11-30T10:37:05.317Z,51.20
2023-11-30T10:38:05.288Z,48.70
2023-11-30T10:39:05.284Z,48.10
2023-11-30T10:40:05.243Z,50.10
2023-11-30T10:41:05.204Z,47.90
2023-11-30T10:42:05.189Z,45.50
2023-11-30T10:43:05.160Z,52.70
2023-11-30T10:44:05.110Z,53.30
2023-11-30T10:45:05.151Z,53.90
2023-11-30T10:46:05.050Z,51.10
2023-11-30T10:47:05.026Z,48.90
2023-11-30T10:48:05.066Z,51.50
2023-11-30T10:49:04.987Z,49.00
2023-11-30T10:50:04.931Z,50.70
2023-11-30T10:51:04.930Z,46.50
2023-11-30T10:52:04.874Z,50.90
2023-11-30T10:53:04.843Z,48.90
2023-11-30T10:54:04.823Z,48.10
2023-11-30T10:55:04.789Z,51.50
2023-11-30T10:56:04.751Z,48.20
2023-11-30T10:57:04.724Z,47.30
2023-11-30T10:58:04.694Z,48.50
2023-11-30T10:59:04.696Z,46.80
2023-11-30T11:00:04.642Z,46.10
2023-11-30T11:01:04.678Z,44.30
2023-11-30T11:02:04.733Z,48.00
2023-11-30T11:03:04.624Z,44.30
2023-11-30T11:04:04.593Z,47.90
2023-11-30T11:05:04.498Z,45.10
2023-11-30T11:06:04.461Z,45.60
2023-11-30T11:07:04.443Z,47.00
2023-11-30T11:08:04.415Z,46.20
2023-11-30T11:09:04.387Z,49.50
2023-11-30T11:10:04.410Z,48.70
2023-11-30T11:11:04.331Z,44.40
2023-11-30T11:12:04.287Z,45.10
2023-11-30T11:13:04.270Z,44.20
2023-11-30T11:14:04.231Z,45.40
2023-11-30T11:15:04.236Z,43.90
2023-11-30T11:16:04.454Z,44.20
2023-11-30T11:17:04.167Z,42.40
2023-11-30T11:18:04.234Z,44.80
2023-11-30T11:19:04.173Z,44.20
2023-11-30T11:20:04.070Z,44.10
2023-11-30T11:21:04.048Z,50.10
2023-11-30T11:22:04.014Z,53.90
2023-11-30T11:23:04.148Z,49.80
2023-11-30T11:24:03.952Z,47.30
2023-11-30T11:25:03.929Z,47.80
2023-11-30T11:26:03.898Z,45.70
2023-11-30T11:27:03.868Z,50.60
2023-11-30T11:28:03.941Z,50.00
2023-11-30T11:29:03.808Z,47.40
2023-11-30T11:30:03.836Z,49.70
2023-11-30T11:31:03.993Z,50.60
2023-11-30T11:32:03.857Z,46.10
2023-11-30T11:33:03.714Z,47.10
2023-11-30T11:34:03.682Z,46.00
2023-11-30T11:35:03.639Z,47.80
2023-11-30T11:36:03.617Z,45.10
2023-11-30T11:37:03.594Z,47.30
2023-11-30T11:38:03.551Z,45.50
2023-11-30T11:39:03.522Z,47.00
2023-11-30T11:40:03.538Z,52.20
2023-11-30T11:41:03.471Z,49.70
2023-11-30T11:42:03.429Z,51.90
2023-11-30T11:43:03.407Z,52.50
2023-11-30T11:44:03.449Z,50.80
2023-11-30T11:45:03.467Z,47.00
2023-11-30T11:46:03.450Z,47.90
2023-11-30T11:47:03.334Z,50.60
2023-11-30T11:48:03.284Z,50.20
2023-11-30T11:49:03.232Z,48.30
2023-11-30T11:50:03.203Z,44.50
2023-11-30T11:51:03.170Z,42.30
2023-11-30T11:52:03.163Z,46.20
2023-11-30T11:53:03.115Z,47.00
2023-11-30T11:54:03.089Z,50.20
2023-11-30T11:55:03.072Z,51.00
2023-11-30T11:56:03.043Z,45.90
2023-11-30T11:57:03.001Z,45.60
2023-11-30T11:58:03.065Z,47.80
2023-11-30T11:59:02.938Z,46.20
2023-11-30T12:00:02.915Z,52.10
2023-11-30T12:01:03.047Z,42.20
2023-11-30T12:02:02.971Z,45.20
2023-11-30T12:03:02.860Z,42.90
2023-11-30T12:04:02.882Z,44.90
2023-11-30T12:05:02.771Z,42.90
2023-11-30T12:06:02.737Z,41.10
2023-11-30T12:07:02.715Z,43.20
2023-11-30T12:08:02.687Z,41.80
2023-11-30T12:09:02.668Z,41.50
2023-11-30T12:10:02.630Z,40.50
2023-11-30T12:11:02.596Z,41.30
2023-11-30T12:12:02.562Z,42.70
2023-11-30T12:13:02.547Z,43.00
2023-11-30T12:14:02.579Z,41.10
2023-11-30T12:15:02.478Z,45.70
2023-11-30T12:16:02.662Z,39.20
2023-11-30T12:17:02.441Z,42.00
2023-11-30T12:18:02.439Z,44.80
2023-11-30T12:19:02.391Z,42.00
2023-11-30T12:20:02.333Z,48.50
2023-11-30T12:21:02.319Z,46.20
2023-11-30T12:22:02.273Z,43.80
2023-11-30T12:23:02.325Z,45.90
2023-11-30T12:24:02.216Z,44.10
2023-11-30T12:25:02.193Z,46.50
2023-11-30T12:26:02.155Z,44.20
2023-11-30T12:27:02.128Z,45.90
2023-11-30T12:28:02.107Z,40.90
2023-11-30T12:29:02.076Z,40.30
2023-11-30T12:30:02.047Z,46.80
2023-11-30T12:31:02.016Z,42.10
2023-11-30T12:32:02.133Z,44.40
2023-11-30T12:33:01.976Z,41.50
2023-11-30T12:34:02.016Z,43.90
2023-11-30T12:35:01.939Z,42.10
2023-11-30T12:36:01.895Z,42.10
2023-11-30T12:37:01.953Z,44.80
2023-11-30T12:38:01.820Z,46.10
2023-11-30T12:39:01.784Z,45.80
2023-11-30T12:40:01.863Z,48.50
2023-11-30T12:41:01.735Z,48.80
2023-11-30T12:42:03.569Z,49.40
2023-11-30T12:43:01.687Z,51.50
2023-11-30T12:44:03.517Z,48.40
2023-11-30T12:45:01.607Z,47.40
2023-11-30T12:46:01.649Z,50.80
2023-11-30T12:47:01.554Z,50.60
2023-11-30T12:48:01.541Z,54.00
2023-11-30T12:49:01.533Z,52.30
2023-11-30T12:50:01.516Z,52.60
2023-11-30T12:51:01.462Z,47.20
2023-11-30T12:52:01.411Z,49.20